createdAt,value
2023-03-06T00:00:42.891Z,98.60
2023-03-06T00:05:49.019Z,98.70
2023-03-06T00:10:52.350Z,98.80
2023-03-06T00:15:55.731Z,98.90
2023-03-06T00:21:00.465Z,99.00
2023-03-06T00:26:03.713Z,99.00
2023-03-06T00:31:07.253Z,99.00
2023-03-06T00:36:13.148Z,99.00
2023-03-06T00:41:17.519Z,99.00
2023-03-06T00:46:20.730Z,99.00
2023-03-06T00:51:25.289Z,99.10
2023-03-06T00:56:30.019Z,99.20
2023-03-06T01:01:33.307Z,99.30
2023-03-06T01:06:38.072Z,99.40
2023-03-06T01:11:41.410Z,99.50
2023-03-06T01:16:44.728Z,99.60
2023-03-06T01:21:49.432Z,99.70
2023-03-06T01:26:52.780Z,99.70
2023-03-06T01:31:57.019Z,99.80
2023-03-06T01:37:01.932Z,99.80
2023-03-06T01:42:05.827Z,99.90
2023-03-06T01:47:09.095Z,99.90
2023-03-06T01:52:19.088Z,99.90
2023-03-06T01:57:25.516Z,99.90
2023-03-06T02:02:29.937Z,99.90
2023-03-06T02:07:35.506Z,99.90
2023-03-06T02:12:42.315Z,99.90
2023-03-06T02:17:48.693Z,99.90
2023-03-06T02:22:58.143Z,99.90
2023-03-06T02:28:03.585Z,99.90
2023-03-06T02:33:07.547Z,99.90
2023-03-06T02:38:15.073Z,99.90
2023-03-06T02:43:24.061Z,99.90
2023-03-06T02:48:27.356Z,99.90
2023-03-06T02:53:31.106Z,99.90
2023-03-06T02:58:37.379Z,99.90
2023-03-06T03:03:40.909Z,99.90
2023-03-06T03:08:44.382Z,99.90
2023-03-06T03:13:50.173Z,99.90
2023-03-06T03:18:58.849Z,99.90
2023-03-06T03:24:03.469Z,99.90
2023-03-06T03:29:08.274Z,99.90
2023-03-06T03:34:11.935Z,99.90
2023-03-06T03:39:17.059Z,99.90
2023-03-06T03:44:21.922Z,99.90
2023-03-06T03:49:25.689Z,99.90
2023-03-06T03:54:29.998Z,99.90
2023-03-06T03:59:35.010Z,99.90
2023-03-06T04:04:51.467Z,99.90
2023-03-06T04:09:55.082Z,99.90
2023-03-06T04:15:00.468Z,99.90
2023-03-06T04:20:05.314Z,99.90
2023-03-06T04:25:10.075Z,99.90
2023-03-06T04:30:16.579Z,99.90
2023-03-06T04:35:20.311Z,99.90
2023-03-06T04:40:35.127Z,99.90
2023-03-06T04:45:39.981Z,99.90
2023-03-06T04:50:43.314Z,99.90
2023-03-06T04:55:46.936Z,99.90
2023-03-06T05:00:51.691Z,99.90
2023-03-06T05:05:55.211Z,99.90
2023-03-06T05:11:00.351Z,99.90
2023-03-06T05:16:06.308Z,99.90
2023-03-06T05:21:10.283Z,99.90
2023-03-06T05:26:15.680Z,99.90
2023-03-06T05:31:20.386Z,99.90
2023-03-06T05:36:23.876Z,99.90
2023-03-06T05:41:27.143Z,99.90
2023-03-06T05:46:31.823Z,99.90
2023-03-06T05:51:35.051Z,99.90
2023-03-06T05:56:38.322Z,99.90
2023-03-06T06:01:42.967Z,99.90
2023-03-06T06:06:46.190Z,99.90
2023-03-06T06:11:51.838Z,99.90
2023-03-06T06:16:57.286Z,99.90
2023-03-06T06:22:02.611Z,99.90
2023-03-06T06:27:06.231Z,99.90
2023-03-06T06:32:11.215Z,99.90
2023-03-06T06:37:14.781Z,99.90
2023-03-06T06:42:32.957Z,99.90
2023-03-06T06:47:41.873Z,99.90
2023-03-06T06:52:45.400Z,99.90
2023-03-06T06:57:48.581Z,99.90
2023-03-06T07:02:53.130Z,99.90
2023-03-06T07:07:56.363Z,99.90
2023-03-06T07:13:00.111Z,99.90
2023-03-06T07:18:04.934Z,99.90
2023-03-06T07:23:09.677Z,99.90
2023-03-06T07:28:13.453Z,99.90
2023-03-06T07:33:18.777Z,99.90
2023-03-06T07:38:22.165Z,99.90
2023-03-06T07:43:25.783Z,99.90
2023-03-06T07:48:38.315Z,99.90
2023-03-06T07:53:42.040Z,99.90
2023-03-06T07:58:47.407Z,99.90
2023-03-06T08:03:52.481Z,99.90
2023-03-06T08:08:57.312Z,99.90
2023-03-06T08:14:01.954Z,99.90
2023-03-06T08:19:06.773Z,99.90
2023-03-06T08:24:10.166Z,99.90
2023-03-06T08:29:13.496Z,99.90
2023-03-06T08:34:20.338Z,99.90
2023-03-06T08:39:23.962Z,99.90
2023-03-06T08:44:27.214Z,99.90
2023-03-06T08:49:32.197Z,99.90
2023-03-06T08:54:36.720Z,99.90
2023-03-06T08:59:40.032Z,99.90
2023-03-06T09:04:44.926Z,99.90
2023-03-06T09:09:48.183Z,99.90
2023-03-06T09:14:51.414Z,99.90
2023-03-06T09:19:55.976Z,99.90
2023-03-06T09:24:59.486Z,99.90
2023-03-06T09:30:02.789Z,99.90
2023-03-06T09:35:08.225Z,99.90
2023-03-06T09:40:20.878Z,99.90
2023-03-06T09:45:24.428Z,99.90
2023-03-06T09:50:38.413Z,99.90
2023-03-06T09:55:44.168Z,99.90
2023-03-06T10:00:56.756Z,99.90
2023-03-06T10:06:06.203Z,99.90
2023-03-06T10:11:12.687Z,99.90
2023-03-06T10:16:27.165Z,99.90
2023-03-06T10:21:40.668Z,99.60
2023-03-06T10:26:49.871Z,98.70
2023-03-06T10:32:03.910Z,98.60
2023-03-06T10:37:19.067Z,98.50
2023-03-06T10:42:22.322Z,98.50
2023-03-06T10:47:31.499Z,99.00
2023-03-06T10:52:37.049Z,99.20
2023-03-06T10:57:42.189Z,98.80
2023-03-06T11:02:45.456Z,99.20
2023-03-06T11:07:57.238Z,99.10
2023-03-06T11:13:02.826Z,99.00
2023-03-06T11:18:28.626Z,98.60
2023-03-06T11:23:44.594Z,98.40
2023-03-06T11:28:51.182Z,97.80
2023-03-06T11:33:58.223Z,97.00
2023-03-06T11:39:14.568Z,96.70
2023-03-06T11:44:26.900Z,96.20
2023-03-06T11:49:39.660Z,96.00
2023-03-06T11:54:44.557Z,96.40
2023-03-06T12:00:15.017Z,96.30
2023-03-06T12:05:33.846Z,96.00
2023-03-06T12:10:49.064Z,95.40
2023-03-06T12:16:22.976Z,95.00
2023-03-06T12:21:34.947Z,94.70
2023-03-06T12:26:58.269Z,94.50
2023-03-06T12:32:17.706Z,95.10
2023-03-06T12:37:26.161Z,95.80
2023-03-06T12:42:43.456Z,95.10
2023-03-06T12:47:49.350Z,95.80
2023-03-06T12:52:54.442Z,97.40
2023-03-06T12:58:36.834Z,98.30
2023-03-06T13:04:05.021Z,98.70
2023-03-06T13:09:23.678Z,99.40
2023-03-06T13:14:32.135Z,99.90
2023-03-06T13:19:36.493Z,99.90
2023-03-06T13:24:39.776Z,99.90
2023-03-06T13:30:21.938Z,99.90
2023-03-06T13:35:59.084Z,99.90
2023-03-06T13:41:34.995Z,99.90
2023-03-06T13:46:39.642Z,99.90
2023-03-06T13:51:59.065Z,99.90
2023-03-06T13:57:22.319Z,99.90
2023-03-06T14:02:41.904Z,99.90
2023-03-06T14:07:47.576Z,99.90
2023-03-06T14:13:04.819Z,99.90
2023-03-06T14:18:16.936Z,99.90
2023-03-06T14:23:29.927Z,99.90
2023-03-06T14:28:34.615Z,99.90
2023-03-06T14:33:44.301Z,99.90
2023-03-06T14:38:53.663Z,99.90
2023-03-06T14:44:16.683Z,99.90
2023-03-06T14:49:22.958Z,99.90
2023-03-06T14:54:30.290Z,99.90
2023-03-06T14:59:43.240Z,99.90
2023-03-06T15:04:50.220Z,99.90
2023-03-06T15:09:55.131Z,99.90
2023-03-06T15:15:01.687Z,99.90
2023-03-06T15:20:08.992Z,99.90
2023-03-06T15:25:26.819Z,99.90
2023-03-06T15:30:32.467Z,99.80
2023-03-06T15:35:38.293Z,99.80
2023-03-06T15:40:41.728Z,99.70
2023-03-06T15:45:44.960Z,99.80
2023-03-06T15:50:49.603Z,99.80
2023-03-06T15:55:54.150Z,99.90
2023-03-06T16:00:57.546Z,99.80
2023-03-06T16:06:02.155Z,99.60
2023-03-06T16:11:05.749Z,99.60
2023-03-06T16:16:13.409Z,99.80
2023-03-06T16:21:18.050Z,99.80
2023-03-06T16:26:28.703Z,99.90
2023-03-06T16:31:32.130Z,99.90
2023-03-06T16:36:36.775Z,99.90
2023-03-06T16:41:40.062Z,99.90
2023-03-06T16:46:45.881Z,99.90
2023-03-06T16:51:51.255Z,99.90
2023-03-06T16:56:54.433Z,99.90
2023-03-06T17:01:57.731Z,99.90
2023-03-06T17:07:02.424Z,99.90
2023-03-06T17:12:05.932Z,99.90
2023-03-06T17:17:09.175Z,99.90
2023-03-06T17:22:13.804Z,99.90
2023-03-06T17:27:17.054Z,99.90
2023-03-06T17:32:20.382Z,99.90
2023-03-06T17:37:24.973Z,99.90
2023-03-06T17:42:28.487Z,99.90
2023-03-06T17:47:31.761Z,99.90
2023-03-06T17:52:37.507Z,99.90
2023-03-06T17:57:40.799Z,99.90
2023-03-06T18:02:45.357Z,99.90
2023-03-06T18:07:50.098Z,99.90
2023-03-06T18:12:53.556Z,99.90
2023-03-06T18:17:59.131Z,99.90
2023-03-06T18:23:03.791Z,99.90
2023-03-06T18:28:07.078Z,99.90
2023-03-06T18:33:11.122Z,99.90
2023-03-06T18:38:15.834Z,99.90
2023-03-06T18:43:19.074Z,99.90
2023-03-06T18:48:22.627Z,99.90
2023-03-06T18:53:27.746Z,99.90
2023-03-06T18:58:31.337Z,99.90
2023-03-06T19:03:34.681Z,99.90
2023-03-06T19:08:40.453Z,99.90
2023-03-06T19:13:44.173Z,99.90
2023-03-06T19:18:47.659Z,99.90
2023-03-06T19:23:52.390Z,99.90
2023-03-06T19:28:55.728Z,99.90
2023-03-06T19:33:58.999Z,99.90
2023-03-06T19:39:06.019Z,99.90
2023-03-06T19:44:09.450Z,99.90
2023-03-06T19:49:17.951Z,99.90
2023-03-06T19:54:24.762Z,99.90
2023-03-06T19:59:27.954Z,99.90
2023-03-06T20:04:33.037Z,99.90
2023-03-06T20:09:37.896Z,99.90
2023-03-06T20:14:41.061Z,99.90
2023-03-06T20:19:44.486Z,99.90
2023-03-06T20:24:49.047Z,99.90
2023-03-06T20:29:52.202Z,99.90
2023-03-06T20:34:55.453Z,99.90
2023-03-06T20:40:00.209Z,99.90
2023-03-06T20:45:03.770Z,99.90
2023-03-06T20:50:08.361Z,99.90
2023-03-06T20:55:13.259Z,99.90
2023-03-06T21:00:17.237Z,99.90
2023-03-06T21:05:20.500Z,99.90
2023-03-06T21:10:25.297Z,99.90
2023-03-06T21:15:30.003Z,99.90
2023-03-06T21:20:33.500Z,99.90
2023-03-06T21:25:38.002Z,99.90
2023-03-06T21:30:41.353Z,99.90
2023-03-06T21:35:45.928Z,99.90
2023-03-06T21:40:50.953Z,99.90
2023-03-06T21:45:57.810Z,99.90
2023-03-06T21:51:08.879Z,99.90
2023-03-06T21:56:14.663Z,99.90
2023-03-06T22:01:20.870Z,99.90
2023-03-06T22:06:26.231Z,99.90
2023-03-06T22:11:34.743Z,99.90
2023-03-06T22:16:38.151Z,99.90
2023-03-06T22:21:41.435Z,99.90
2023-03-06T22:26:46.238Z,99.90
2023-03-06T22:31:49.633Z,99.90
2023-03-06T22:36:53.052Z,99.90
2023-03-06T22:41:58.456Z,99.90
2023-03-06T22:47:01.706Z,99.90
2023-03-06T22:52:15.093Z,99.90
2023-03-06T22:57:19.872Z,99.90
2023-03-06T23:02:23.425Z,99.90
2023-03-06T23:07:27.077Z,99.90
2023-03-06T23:12:38.349Z,99.90
2023-03-06T23:17:59.896Z,99.90
2023-03-06T23:23:22.568Z,99.90
2023-03-06T23:28:27.207Z,99.90
2023-03-06T23:33:30.988Z,99.90
2023-03-06T23:38:34.361Z,99.90
2023-03-06T23:43:39.589Z,99.90
2023-03-06T23:48:43.931Z,99.90
2023-03-06T23:53:48.612Z,99.90
2023-03-06T23:58:53.311Z,99.90
